MAD weather

Adolfo Suárez Madrid–Barajas Airport
Madrid, Madrid, Spain

Public forecast

Using degrees Celsius for public forecast. Weather courtesy of forecast.io.

METAR (pilot weather report)

Retrieved 2018/10/17 05:00 UTC (6 minutes ago):

LEMD 170500Z 02002KT CAVOK 09/08 Q1019 NOSIG

TAF (pilot weather forecast)

Forecast is more than 12 hours old.

Retrieved 2018/10/16 00:29 UTC (1 day ago):

TAF LEMD 162300Z 1700/1806 02005KT CAVOK TX23/1715Z TN09/1706Z PROB30 TEMPO 1715/1718 22010KT